7040-1

Bandara Lombok Praya tutup 45 jam karena ATR Garuda keluar landasan

Pada tanggal 3 Februari, pesawat Garuda Indonesia jenis ATR72-600 dengan nomor penerbangan GA7040 dari Denpasar (DPS/WADD) menuju Lombok (LOP/WADL) keluar landasan ketika melakukan pendaratan pada pukul 1703 WITA (0903UTC). Pesawat yang beregistrasi PK-GAG tersebut awalnya mendarat dengan normal lalu tiba2 belok ke kanan dan berhenti sekitar 15-20 meter dari pinggir landasan.

7040-1

Pesawat mengangkut 28 penumpang dewasa dan 1 bayi, semua penumpang tidak ada yang mengalami cedera. Pesawatpun terlihat tidak mengalami kerusakan parah kecuali pada roda depan pesawat. Cuaca pada saat kejadian pun cukup baik:

WADL 030900Z 23008KT 9999 SCT016 30/23 Q1010 NOSIG

Pesawat membawa 1 pilot instrutur dan 2 pilot yang sedang melakukan pelatihan lanjut konversi ATR72 (line training). Salah satu pilot yang sedang melakukan latihan lanjut konversi ATR72 dilaporkan sebelumnya adalah pilot MA-60 Merpati.

Akibat dari kejadian ini, bandara Lombok Praya terpaksa harus ditutup menunggu pesawat nahas tersebut bisa dipindahkan. Upaya pemindahan pesawat terkendala karena peralatan berat yang diperlukan harus diangkut terlebih dahulu dari Pulau Bali. Bandara tutup selama kurang lebih 45 jam sebelum pesawat berhasil dipindahkan pada pukul 1410 WITA (0610UTC) tanggal 5 Februari. Dikabarkan penerbangan akan mulai kembali pada pukul 1630WITA (0830UTC) tanggal 5 Februari.

7040-2

Leave a Reply